Tropical Cyclones
[Index]
Main Index Home Page Stock Weather Photos Extreme Storms Discussion Storm News and Storm Chasing Reports Tropical Cyclones / Hurricanes / Typhoons Weather Data and Links Wild Fires / Bushfires Weather Observation Techniques Weather Picture Catalogue Tornado Pictures and Reports Stock Video Footage and DVDs for sale
Season 1966-1967 Tropical Cyclone DELILAH Track Map
Season 1966-1967 Summaries: [BoM-AU] [JTWC-AU] [JTWC-SIO] [JTWC-SPAC] [JTWC-SH]
<<- Previous TC | BoM 1966-1967 Season | Next TC ->>

click for intensity scale information  Lat/long Grid: Show Hide

 Date Labels: Show Hide

Bureau of Meteorology Tropical Cyclone Data

Name: DELILAH
Number: 412 / 196667_04

26 Dec 1966 01:00 UTC to 31 Dec 1966 01:00 UTC

    date/time    lat    long    hPa   cat  kts
1966-12-26 01   11.0   100.0   1001                     
1966-12-26 04   11.1    99.9   1001                     
1966-12-26 07   11.3    99.8   1000                     
1966-12-26 10   11.4    99.7   1000                     
1966-12-26 16   11.7    99.4    999                     
1966-12-26 19   11.8    99.3    999                     
1966-12-26 22   11.9    99.1    999                     
1966-12-27 01   12.0    99.0    998                     
1966-12-27 04   12.1    98.9    998                     
1966-12-27 07   12.3    98.8    998                     
1966-12-27 10   12.4    98.7    998                     
1966-12-27 16   12.7    98.4    998                     
1966-12-27 19   12.8    98.3    998                     
1966-12-27 22   12.9    98.1    998                     
1966-12-28 01   13.0    98.0    998                     
1966-12-28 04   13.2    97.5    998                     
1966-12-28 07   13.5    97.0    997                     
1966-12-28 10   13.7    96.5    997                     
1966-12-28 16   14.2    95.5    996                     
1966-12-28 19   14.5    95.0    996                     
1966-12-28 22   14.8    94.5    995    1                
1966-12-29 01   15.0    94.0    995    1                
1966-12-29 04   15.6    93.8    995    1                
1966-12-29 07   16.2    93.5    995    1                
1966-12-29 10   16.8    93.2    995    1                
1966-12-29 16   18.0    92.4    995    1                
1966-12-29 19   18.6    92.0    995    1                
1966-12-29 22   19.0    91.7    995    1                
1966-12-30 01   19.5    91.4    995    1                
1966-12-30 04   20.0    91.0    995    1                
1966-12-30 07   20.3    91.0    996                     
1966-12-30 10   20.6    91.0    997                     
1966-12-30 16   21.1    91.0    999                     
1966-12-30 22   21.7    91.0   1001                     
1966-12-31 01   22.0    91.0   1003                     
Winds are 10-min average.

Tropical cyclone tracks developed by Michael Bath using data from the Bureau of Meteorology and Google Maps.


[Australian Severe Weather index] [Copyright Notice] [Email Contacts] [Search This Site] [Privacy Policy]
Document: tropical_cyclone_delilah.htm Updated: 30 May 2013